CheckWX is a tool to help pilots better visualize weather data.  It is not intended as a substitute for an official pre-flight weather briefing.

05:21:45 UTC

EHKD METAR
De Kooy Airport
Den Helder, The Netherlands
Current

27 mins ago

EHKD 200455Z AUTO 22011KT 9999 BKN070 OVC076 07/06 Q1018 BLU
Observed
Feb-20 @ 04:55 UTC
Wind
  • 220° at 11 KTS
Visibility
10,000+ meters
Flight Rules
VFR
Cloud Levels
  • Broken at 7,000' AGL
  • Overcast at 7,600' AGL
Temperature
C / 45°F
Dewpoint
C / 43°F
Humidity
93%
Altimeter
30.06" Hg
Pressure
1017.92 hPa
Previous

57 mins ago

EHKD 200425Z AUTO 23011KT 9000 BR FEW080 BKN094 OVC099 07/06 Q1018 BLU
Observed
Feb-20 @ 04:25 UTC
Wind
  • 230° at 11 KTS
Visibility
8,996 meters
Flight Rules
VFR
Conditions
Mist
Cloud Levels
  • Few at 8,000' AGL
  • Broken at 9,400' AGL
  • Overcast at 9,900' AGL
Temperature
C / 45°F
Dewpoint
C / 43°F
Humidity
93%
Altimeter
30.06" Hg
Pressure
1017.92 hPa
Previous

1 hour ago

EHKD 200355Z AUTO 23011KT 9000 BR OVC100 07/06 Q1018 BLU
Observed
Feb-20 @ 03:55 UTC
Wind
  • 230° at 11 KTS
Visibility
8,996 meters
Flight Rules
VFR
Conditions
Mist
Cloud Levels
  • Overcast at 10,000' AGL
Temperature
C / 45°F
Dewpoint
C / 43°F
Humidity
93%
Altimeter
30.06" Hg
Pressure
1017.92 hPa